createdAt,value
2018-06-18T00:00:17.367Z,18.21
2018-06-18T00:02:47.326Z,18.26
2018-06-18T00:05:17.329Z,18.33
2018-06-18T00:07:47.751Z,18.25
2018-06-18T00:10:17.677Z,18.30
2018-06-18T00:12:47.411Z,18.20
2018-06-18T00:15:17.208Z,18.02
2018-06-18T00:17:46.936Z,17.79
2018-06-18T00:20:16.739Z,17.63
2018-06-18T00:22:46.575Z,17.43
2018-06-18T00:25:16.415Z,17.32
2018-06-18T00:27:46.207Z,17.37
2018-06-18T00:30:16.165Z,17.21
2018-06-18T00:32:45.865Z,17.26
2018-06-18T00:35:15.647Z,17.27
2018-06-18T00:37:45.071Z,17.12
2018-06-18T00:40:14.750Z,17.04
2018-06-18T00:42:44.504Z,16.89
2018-06-18T00:45:14.206Z,16.84
2018-06-18T00:47:43.935Z,16.78
2018-06-18T00:50:13.710Z,16.72
2018-06-18T00:52:43.783Z,16.68
2018-06-18T00:55:23.520Z,16.59
2018-06-18T00:57:53.211Z,16.50
2018-06-18T01:00:23.083Z,16.48
2018-06-18T01:02:54.813Z,16.53
2018-06-18T01:05:24.595Z,16.53
2018-06-18T01:07:54.437Z,16.47
2018-06-18T01:10:24.042Z,16.35
2018-06-18T01:12:53.779Z,16.34
2018-06-18T01:15:23.463Z,16.43
2018-06-18T01:17:53.371Z,16.40
2018-06-18T01:20:23.089Z,16.27
2018-06-18T01:23:01.447Z,16.15
2018-06-18T01:25:31.147Z,16.12
2018-06-18T01:28:00.847Z,16.09
2018-06-18T01:30:30.711Z,16.06
2018-06-18T01:33:00.324Z,16.02
2018-06-18T01:35:30.131Z,16.11
2018-06-18T01:37:59.845Z,16.12
2018-06-18T01:40:29.673Z,16.11
2018-06-18T01:42:59.455Z,16.07
2018-06-18T01:45:29.194Z,16.01
2018-06-18T01:47:59.080Z,16.05
2018-06-18T01:50:28.887Z,16.05
2018-06-18T01:52:58.675Z,16.03
2018-06-18T01:55:28.540Z,16.01
2018-06-18T01:57:58.224Z,15.99
2018-06-18T02:00:28.070Z,15.99
2018-06-18T02:02:57.783Z,15.91
2018-06-18T02:05:27.625Z,15.86
2018-06-18T02:07:57.867Z,15.82
2018-06-18T02:10:28.345Z,15.75
2018-06-18T02:12:59.087Z,15.75
2018-06-18T02:15:28.938Z,15.63
2018-06-18T02:17:58.656Z,15.63
2018-06-18T02:20:28.419Z,15.60
2018-06-18T02:22:58.325Z,15.62
2018-06-18T02:25:28.017Z,15.70
2018-06-18T02:28:02.676Z,15.65
2018-06-18T02:30:37.970Z,15.70
2018-06-18T02:33:14.060Z,15.83
2018-06-18T02:35:49.123Z,15.82
2018-06-18T02:38:24.172Z,15.73
2018-06-18T02:40:54.022Z,15.62
2018-06-18T02:43:23.764Z,15.55
2018-06-18T02:45:53.596Z,15.53
2018-06-18T02:48:23.424Z,15.58
2018-06-18T02:50:53.272Z,15.68
2018-06-18T02:53:23.205Z,15.78
2018-06-18T02:55:53.399Z,15.79
2018-06-18T02:58:23.154Z,15.87
2018-06-18T03:00:52.852Z,15.85
2018-06-18T03:03:22.679Z,15.93
2018-06-18T03:05:52.391Z,16.05
2018-06-18T03:08:22.151Z,16.05
2018-06-18T03:10:51.866Z,16.05
2018-06-18T03:13:21.369Z,16.21
2018-06-18T03:15:51.791Z,16.33
2018-06-18T03:18:26.819Z,16.40
2018-06-18T03:21:02.038Z,16.53
2018-06-18T03:23:36.868Z,16.69
2018-06-18T03:26:11.955Z,16.80
2018-06-18T03:28:47.128Z,16.87
2018-06-18T03:31:17.244Z,16.86
2018-06-18T03:33:46.943Z,17.03
2018-06-18T03:36:16.755Z,17.15
2018-06-18T03:38:46.272Z,17.26
2018-06-18T03:41:16.820Z,17.42
2018-06-18T03:43:51.878Z,17.50
2018-06-18T03:46:21.693Z,17.65
2018-06-18T03:48:51.614Z,17.80
2018-06-18T03:51:21.312Z,18.07
2018-06-18T03:53:50.837Z,18.31
2018-06-18T03:56:20.647Z,18.47
2018-06-18T03:58:50.442Z,18.68
2018-06-18T04:01:30.296Z,18.80
2018-06-18T04:04:08.008Z,18.95
2018-06-18T04:06:43.048Z,19.06
2018-06-18T04:09:18.079Z,19.20
2018-06-18T04:11:52.851Z,19.31
2018-06-18T04:14:22.563Z,19.50
2018-06-18T04:16:52.123Z,19.63
2018-06-18T04:19:22.121Z,19.79
2018-06-18T04:21:52.063Z,19.96
2018-06-18T04:24:21.811Z,20.04
2018-06-18T04:26:51.251Z,20.15
2018-06-18T04:29:23.040Z,20.18
2018-06-18T04:31:54.391Z,20.24
2018-06-18T04:34:36.461Z,20.42
2018-06-18T04:37:06.311Z,20.54
2018-06-18T04:39:36.079Z,20.70
2018-06-18T04:42:11.218Z,21.00
2018-06-18T04:44:46.356Z,21.31
2018-06-18T04:47:21.357Z,21.61
2018-06-18T04:49:56.063Z,21.96
2018-06-18T04:52:25.947Z,22.30
2018-06-18T04:54:55.879Z,22.66
2018-06-18T04:57:25.667Z,23.11
2018-06-18T05:00:05.721Z,23.57
2018-06-18T05:02:35.453Z,24.48
2018-06-18T05:05:05.221Z,25.51
2018-06-18T05:07:34.958Z,26.52
2018-06-18T05:10:26.020Z,27.55
2018-06-18T05:12:57.341Z,28.73
2018-06-18T05:15:43.319Z,29.57
2018-06-18T05:18:13.476Z,30.43
2018-06-18T05:20:43.844Z,30.65
2018-06-18T05:23:17.395Z,30.46
2018-06-18T05:25:53.751Z,29.90
2018-06-18T05:28:24.138Z,29.38
2018-06-18T05:30:55.113Z,29.00
2018-06-18T05:33:25.680Z,28.90
2018-06-18T05:35:56.201Z,29.24
2018-06-18T05:38:35.001Z,30.26
2018-06-18T05:41:05.299Z,31.63
2018-06-18T05:43:35.675Z,33.09
2018-06-18T05:46:06.010Z,34.01
2018-06-18T05:48:36.323Z,35.35
2018-06-18T05:51:06.658Z,36.55
2018-06-18T05:53:36.947Z,36.99
2018-06-18T05:56:07.276Z,36.56
2018-06-18T05:58:37.571Z,35.49
2018-06-18T06:01:07.891Z,34.45
2018-06-18T06:03:38.458Z,34.22
2018-06-18T06:06:08.940Z,34.40
2018-06-18T06:08:39.308Z,35.10
2018-06-18T06:11:09.647Z,35.73
2018-06-18T06:13:39.932Z,36.49
2018-06-18T06:16:10.271Z,37.27
2018-06-18T06:18:40.576Z,37.91
2018-06-18T06:21:12.404Z,38.28
2018-06-18T06:23:43.403Z,38.11
2018-06-18T06:26:14.696Z,37.78
2018-06-18T06:28:44.663Z,37.60
2018-06-18T06:31:14.971Z,38.15
2018-06-18T06:33:45.041Z,38.71
2018-06-18T06:36:15.611Z,38.69
2018-06-18T06:38:45.659Z,39.12
2018-06-18T06:41:15.647Z,39.96
2018-06-18T06:43:45.671Z,40.02
2018-06-18T06:46:15.654Z,40.19
2018-06-18T06:48:46.374Z,40.68
2018-06-18T06:51:16.424Z,40.81
2018-06-18T06:53:46.118Z,40.71
2018-06-18T06:56:16.121Z,41.35
2018-06-18T06:58:46.103Z,41.45
2018-06-18T07:01:15.891Z,41.41
2018-06-18T07:03:46.216Z,42.06
2018-06-18T07:06:18.088Z,42.85
2018-06-18T07:08:48.119Z,41.79
2018-06-18T07:11:19.155Z,41.42
2018-06-18T07:13:49.191Z,41.23
2018-06-18T07:16:19.321Z,41.83
2018-06-18T07:18:49.355Z,42.27
2018-06-18T07:21:19.371Z,42.89
2018-06-18T07:23:49.369Z,43.66
2018-06-18T07:26:19.486Z,43.75
2018-06-18T07:28:49.489Z,43.57
2018-06-18T07:31:19.508Z,42.64
2018-06-18T07:33:49.635Z,41.07
2018-06-18T07:36:19.738Z,40.62
2018-06-18T07:38:49.765Z,40.58
2018-06-18T07:41:19.780Z,40.15
2018-06-18T07:43:50.112Z,39.39
2018-06-18T07:46:20.307Z,38.36
2018-06-18T07:48:50.352Z,37.26
2018-06-18T07:51:20.360Z,36.50
2018-06-18T07:53:50.643Z,35.58
2018-06-18T07:56:20.919Z,34.77
2018-06-18T07:58:51.188Z,33.91
2018-06-18T08:01:21.525Z,33.22
2018-06-18T08:03:51.838Z,33.08
2018-06-18T08:06:22.195Z,33.80
2018-06-18T08:08:52.465Z,34.96
2018-06-18T08:11:22.767Z,36.36
2018-06-18T08:13:53.075Z,38.00
2018-06-18T08:16:23.359Z,39.52
2018-06-18T08:18:53.704Z,40.48
2018-06-18T08:21:23.707Z,41.30
2018-06-18T08:23:53.762Z,41.50
2018-06-18T08:26:23.743Z,41.86
2018-06-18T08:28:53.788Z,42.17
2018-06-18T08:31:23.823Z,41.62
2018-06-18T08:33:54.852Z,41.69
2018-06-18T08:36:24.924Z,41.93
2018-06-18T08:38:54.927Z,41.16
2018-06-18T08:41:24.957Z,41.02
2018-06-18T08:43:54.995Z,40.76
2018-06-18T08:46:25.026Z,40.40
2018-06-18T08:49:00.468Z,40.41
2018-06-18T08:51:35.707Z,40.61
2018-06-18T08:54:11.106Z,40.73
2018-06-18T08:56:46.791Z,40.10
2018-06-18T08:59:22.329Z,40.11
2018-06-18T09:01:52.611Z,40.35
2018-06-18T09:04:28.484Z,41.34
2018-06-18T09:07:02.309Z,41.96
2018-06-18T09:09:32.352Z,41.91
2018-06-18T09:12:02.350Z,41.26
2018-06-18T09:14:32.391Z,40.06
2018-06-18T09:17:02.396Z,38.76
2018-06-18T09:19:32.683Z,37.26
2018-06-18T09:22:02.991Z,36.47
2018-06-18T09:24:33.278Z,36.60
2018-06-18T09:27:09.163Z,36.45
2018-06-18T09:29:44.373Z,36.33
2018-06-18T09:32:15.042Z,36.24
2018-06-18T09:34:45.523Z,35.88
2018-06-18T09:37:15.895Z,35.28
2018-06-18T09:39:46.163Z,34.28
2018-06-18T09:42:16.504Z,33.63
2018-06-18T09:44:46.784Z,33.34
2018-06-18T09:47:17.115Z,32.77
2018-06-18T09:49:52.631Z,32.27
2018-06-18T09:53:26.815Z,31.87
2018-06-18T09:56:02.269Z,31.49
2018-06-18T09:58:38.074Z,31.18
2018-06-18T10:01:16.718Z,30.95
2018-06-18T10:03:47.027Z,30.77
2018-06-18T10:06:17.387Z,30.59
2018-06-18T10:08:47.893Z,30.38
2018-06-18T10:11:18.221Z,30.35
2018-06-18T10:13:48.498Z,30.27
2018-06-18T10:16:18.835Z,30.03
2018-06-18T10:18:49.113Z,29.89
2018-06-18T10:21:19.470Z,29.80
2018-06-18T10:23:49.760Z,29.64
2018-06-18T10:26:20.139Z,29.68
2018-06-18T10:28:50.462Z,29.76
2018-06-18T10:31:21.091Z,29.85
2018-06-18T10:33:56.826Z,29.96
2018-06-18T10:36:32.459Z,29.96
2018-06-18T10:42:03.215Z,30.03
2018-06-18T10:44:33.491Z,30.28
2018-06-18T10:47:04.227Z,30.62
2018-06-18T10:49:34.508Z,30.65
2018-06-18T10:52:04.840Z,30.48
2018-06-18T10:54:35.193Z,30.39
2018-06-18T10:57:05.561Z,30.24
2018-06-18T10:59:36.071Z,29.95
2018-06-18T11:02:06.398Z,29.57
2018-06-18T11:04:36.715Z,29.47
2018-06-18T11:07:06.972Z,29.65
2018-06-18T11:09:37.030Z,30.05
2018-06-18T11:12:07.407Z,30.29
2018-06-18T11:14:37.788Z,30.52
2018-06-18T11:17:13.523Z,30.74
2018-06-18T11:19:49.007Z,30.65
2018-06-18T11:22:19.379Z,30.71
2018-06-18T11:24:55.496Z,30.87
2018-06-18T11:27:25.959Z,30.71
2018-06-18T11:29:56.326Z,30.60
2018-06-18T11:32:27.069Z,30.24
2018-06-18T11:34:57.646Z,29.98
2018-06-18T11:37:28.294Z,29.39
2018-06-18T11:39:58.302Z,29.40
2018-06-18T11:42:28.591Z,29.20
2018-06-18T11:44:58.891Z,29.09
2018-06-18T11:47:29.260Z,28.83
2018-06-18T11:49:59.731Z,28.56
2018-06-18T11:52:30.119Z,28.48
2018-06-18T11:55:00.643Z,28.55
2018-06-18T11:57:31.016Z,28.67
2018-06-18T12:00:06.741Z,28.81
2018-06-18T12:02:42.175Z,28.94
2018-06-18T12:05:17.767Z,29.05
2018-06-18T12:07:53.299Z,29.13
2018-06-18T12:10:23.933Z,29.22
2018-06-18T12:12:54.273Z,29.30
2018-06-18T12:15:25.011Z,29.26
2018-06-18T12:17:55.397Z,29.20
2018-06-18T12:20:26.027Z,29.16
2018-06-18T12:22:56.427Z,29.12
2018-06-18T12:25:26.755Z,29.08
2018-06-18T12:27:57.199Z,28.94
2018-06-18T12:30:27.701Z,28.71
2018-06-18T12:32:58.063Z,28.52
2018-06-18T12:35:28.468Z,28.66
2018-06-18T12:37:59.881Z,29.03
2018-06-18T12:40:30.159Z,28.98
2018-06-18T12:43:00.727Z,28.92
2018-06-18T12:46:39.587Z,28.81
2018-06-18T12:49:15.139Z,28.62
2018-06-18T12:51:50.705Z,28.42
2018-06-18T12:54:26.528Z,28.28
2018-06-18T12:56:58.295Z,28.12
2018-06-18T12:59:28.692Z,28.02
2018-06-18T13:02:05.019Z,27.86
2018-06-18T13:04:38.416Z,27.90
2018-06-18T13:07:08.759Z,27.94
2018-06-18T13:09:39.315Z,27.86
2018-06-18T13:12:09.719Z,27.78
2018-06-18T13:14:40.094Z,27.55
2018-06-18T13:17:10.369Z,27.37
2018-06-18T13:19:40.703Z,27.29
2018-06-18T13:22:11.051Z,27.27
2018-06-18T13:24:41.330Z,27.35
2018-06-18T13:27:11.627Z,27.40
2018-06-18T13:29:42.033Z,27.35
2018-06-18T13:32:12.358Z,27.35
2018-06-18T13:34:42.612Z,27.38
2018-06-18T13:37:18.114Z,27.42
2018-06-18T13:39:53.694Z,27.48
2018-06-18T13:42:29.182Z,27.58
2018-06-18T13:45:04.659Z,27.56
2018-06-18T13:47:40.049Z,27.65
2018-06-18T13:50:10.331Z,27.68
2018-06-18T13:52:40.643Z,27.68
2018-06-18T13:57:39.010Z,27.69
2018-06-18T14:00:10.079Z,27.72
2018-06-18T14:02:40.375Z,27.79
2018-06-18T14:05:10.658Z,27.72
2018-06-18T14:07:40.958Z,27.63
2018-06-18T14:10:11.290Z,27.72
2018-06-18T14:12:41.541Z,27.75
2018-06-18T14:15:11.864Z,27.60
2018-06-18T14:17:42.302Z,27.60
2018-06-18T14:20:17.672Z,27.72
2018-06-18T14:22:47.986Z,27.91
2018-06-18T14:25:18.319Z,27.96
2018-06-18T14:27:48.822Z,28.02
2018-06-18T14:30:24.347Z,27.89
2018-06-18T14:32:59.928Z,27.79
2018-06-18T14:35:35.445Z,27.70
2018-06-18T14:40:33.454Z,27.59
2018-06-18T14:43:03.718Z,27.56
2018-06-18T14:45:34.066Z,27.46
2018-06-18T14:48:04.575Z,27.36
2018-06-18T14:50:34.864Z,27.25
2018-06-18T14:53:05.102Z,27.21
2018-06-18T14:55:35.366Z,27.15
2018-06-18T14:58:05.678Z,27.15
2018-06-18T15:00:36.282Z,27.22
2018-06-18T15:03:06.674Z,27.24
2018-06-18T15:05:40.074Z,27.26
2018-06-18T15:08:10.397Z,27.29
2018-06-18T15:10:45.920Z,27.33
2018-06-18T15:13:16.202Z,27.26
2018-06-18T15:15:51.671Z,27.18
2018-06-18T15:18:22.186Z,27.17
2018-06-18T15:20:54.739Z,27.15
2018-06-18T15:23:25.038Z,27.19
2018-06-18T15:25:55.072Z,27.20
2018-06-18T15:28:25.562Z,27.21
2018-06-18T15:30:55.855Z,27.21
2018-06-18T15:33:26.191Z,27.28
2018-06-18T15:35:56.449Z,27.28
2018-06-18T15:38:26.764Z,27.27
2018-06-18T15:40:57.276Z,27.30
2018-06-18T15:43:27.551Z,27.34
2018-06-18T15:45:57.841Z,27.40
2018-06-18T15:48:28.114Z,27.41
2018-06-18T15:50:58.414Z,27.37
2018-06-18T15:53:28.679Z,27.33
2018-06-18T15:55:58.979Z,27.26
2018-06-18T15:58:29.242Z,27.24
2018-06-18T16:00:59.534Z,27.19
2018-06-18T16:03:29.843Z,27.10
2018-06-18T16:06:00.102Z,27.00
2018-06-18T16:08:30.402Z,26.95
2018-06-18T16:11:00.667Z,26.91
2018-06-18T16:13:30.955Z,26.82
2018-06-18T16:16:01.538Z,26.83
2018-06-18T16:18:31.822Z,26.84
2018-06-18T16:21:02.090Z,26.81
2018-06-18T16:23:32.396Z,26.83
2018-06-18T16:26:02.750Z,26.80
2018-06-18T16:28:33.014Z,26.74
2018-06-18T16:31:03.399Z,26.64
2018-06-18T16:33:33.674Z,26.67
2018-06-18T16:36:03.935Z,26.64
2018-06-18T16:38:33.963Z,26.62
2018-06-18T16:41:04.346Z,26.53
2018-06-18T16:43:34.604Z,26.47
2018-06-18T16:46:05.106Z,26.42
2018-06-18T16:48:35.366Z,26.34
2018-06-18T16:51:05.654Z,26.24
2018-06-18T16:53:35.923Z,26.22
2018-06-18T16:56:06.205Z,26.17
2018-06-18T16:58:36.529Z,26.15
2018-06-18T17:01:06.808Z,26.06
2018-06-18T17:03:37.102Z,26.04
2018-06-18T17:06:07.381Z,26.03
2018-06-18T17:08:37.690Z,25.98
2018-06-18T17:11:08.014Z,25.89
2018-06-18T17:13:38.322Z,25.84
2018-06-18T17:16:08.338Z,25.78
2018-06-18T17:18:38.674Z,25.65
2018-06-18T17:21:08.962Z,25.56
2018-06-18T17:23:39.219Z,25.43
2018-06-18T17:26:09.519Z,25.31
2018-06-18T17:28:39.795Z,25.26
2018-06-18T17:31:10.122Z,25.22
2018-06-18T17:33:40.657Z,25.15
2018-06-18T17:36:10.963Z,25.15
2018-06-18T17:38:41.603Z,25.14
2018-06-18T17:41:12.042Z,25.11
2018-06-18T17:43:42.295Z,25.01
2018-06-18T17:46:12.610Z,24.89
2018-06-18T17:48:42.883Z,24.84
2018-06-18T17:51:13.171Z,24.73
2018-06-18T17:53:43.468Z,24.62
2018-06-18T17:56:13.742Z,24.49
2018-06-18T17:58:44.087Z,24.40
2018-06-18T18:01:14.384Z,24.33
2018-06-18T18:03:44.923Z,24.32
2018-06-18T18:06:15.202Z,24.23
2018-06-18T18:08:45.595Z,24.12
2018-06-18T18:11:36.329Z,24.09
2018-06-18T18:14:07.524Z,23.93
2018-06-18T18:16:37.883Z,23.77
2018-06-18T18:19:08.138Z,23.67
2018-06-18T18:21:37.836Z,23.51
2018-06-18T18:24:08.120Z,23.42
2018-06-18T18:26:37.819Z,23.39
2018-06-18T18:29:07.905Z,23.31
2018-06-18T18:31:37.890Z,23.19
2018-06-18T18:34:07.579Z,23.04
2018-06-18T18:36:37.243Z,22.94
2018-06-18T18:39:08.811Z,22.94
2018-06-18T18:41:39.123Z,22.83
2018-06-18T18:44:09.258Z,22.70
2018-06-18T18:46:39.046Z,22.55
2018-06-18T18:49:08.482Z,22.42
2018-06-18T18:51:37.902Z,22.39
2018-06-18T18:54:10.279Z,22.33
2018-06-18T18:57:53.223Z,22.31
2018-06-18T19:00:23.538Z,22.14
2018-06-18T19:02:53.915Z,21.91
2018-06-18T19:05:23.800Z,21.77
2018-06-18T19:07:54.238Z,21.64
2018-06-18T19:10:28.387Z,21.52
2018-06-18T19:12:59.814Z,21.33
2018-06-18T19:15:29.871Z,21.20
2018-06-18T19:18:01.268Z,21.05
2018-06-18T19:20:33.669Z,20.91
2018-06-18T19:23:03.365Z,20.76
2018-06-18T19:25:33.030Z,20.71
2018-06-18T19:28:02.770Z,20.61
2018-06-18T19:30:33.656Z,20.51
2018-06-18T19:33:08.415Z,20.42
2018-06-18T19:35:38.091Z,20.27
2018-06-18T19:38:08.138Z,20.20
2018-06-18T19:40:37.815Z,20.14
2018-06-18T19:43:07.618Z,20.09
2018-06-18T19:45:41.282Z,19.97
2018-06-18T19:48:15.414Z,19.92
2018-06-18T19:50:45.208Z,19.87
2018-06-18T19:53:15.051Z,19.79
2018-06-18T19:55:44.763Z,19.71
2018-06-18T19:58:14.451Z,19.64
2018-06-18T20:00:48.322Z,19.52
2018-06-18T20:03:18.073Z,19.46
2018-06-18T20:05:48.746Z,19.40
2018-06-18T20:08:20.887Z,19.33
2018-06-18T20:10:50.610Z,19.30
2018-06-18T20:13:20.326Z,19.28
2018-06-18T20:15:50.018Z,19.22
2018-06-18T20:18:19.711Z,19.21
2018-06-18T20:20:49.798Z,19.14
2018-06-18T20:23:22.513Z,19.13
2018-06-18T20:25:59.919Z,19.06
2018-06-18T20:28:29.673Z,18.90
2018-06-18T20:30:59.346Z,18.76
2018-06-18T20:33:29.638Z,18.62
2018-06-18T20:36:04.766Z,18.48
2018-06-18T20:38:34.515Z,18.37
2018-06-18T20:41:04.286Z,18.27
2018-06-18T20:43:42.178Z,18.19
2018-06-18T20:46:11.885Z,18.14
2018-06-18T20:48:41.641Z,18.08
2018-06-18T20:51:11.330Z,18.06
2018-06-18T20:53:41.018Z,18.05
2018-06-18T20:56:10.723Z,17.97
2018-06-18T20:58:40.425Z,18.01
2018-06-18T21:01:10.246Z,17.99
2018-06-18T21:03:39.944Z,18.05
2018-06-18T21:06:09.666Z,18.27
2018-06-18T21:08:39.067Z,18.24
2018-06-18T21:11:08.749Z,18.25
2018-06-18T21:13:38.670Z,18.37
2018-06-18T21:16:08.342Z,18.53
2018-06-18T21:18:38.015Z,18.36
2018-06-18T21:21:07.798Z,18.37
2018-06-18T21:23:37.494Z,18.31
2018-06-18T21:26:07.202Z,18.42
2018-06-18T21:28:36.882Z,18.42
2018-06-18T21:31:06.680Z,18.29
2018-06-18T21:33:36.478Z,18.15
2018-06-18T21:36:06.370Z,18.02
2018-06-18T21:38:36.116Z,17.84
2018-06-18T21:41:05.832Z,17.69
2018-06-18T21:43:35.643Z,17.53
2018-06-18T21:46:06.215Z,17.38
2018-06-18T21:48:35.907Z,17.24
2018-06-18T21:51:05.650Z,17.17
2018-06-18T21:53:35.370Z,17.12
2018-06-18T21:56:05.448Z,17.05
2018-06-18T21:58:35.135Z,16.99
2018-06-18T22:01:04.872Z,16.96
2018-06-18T22:03:34.326Z,16.89
2018-06-18T22:06:04.027Z,16.84
2018-06-18T22:08:33.746Z,16.77
2018-06-18T22:11:03.485Z,16.75
2018-06-18T22:13:33.190Z,16.70
2018-06-18T22:16:02.927Z,16.69
2018-06-18T22:18:32.626Z,16.68
2018-06-18T22:21:02.290Z,16.61
2018-06-18T22:23:31.962Z,16.58
2018-06-18T22:26:01.649Z,16.54
2018-06-18T22:28:36.648Z,16.50
2018-06-18T22:31:06.373Z,16.48
2018-06-18T22:33:36.375Z,16.43
2018-06-18T22:36:06.083Z,16.42
2018-06-18T22:38:35.901Z,16.43
2018-06-18T22:41:05.666Z,16.41
2018-06-18T22:43:35.451Z,16.39
2018-06-18T22:46:05.165Z,16.37
2018-06-18T22:48:34.911Z,16.33
2018-06-18T22:51:04.338Z,16.33
2018-06-18T22:53:33.782Z,16.28
2018-06-18T22:56:03.457Z,16.23
2018-06-18T22:58:33.242Z,16.14
2018-06-18T23:01:02.991Z,16.07
2018-06-18T23:03:32.756Z,16.01
2018-06-18T23:06:02.231Z,15.99
2018-06-18T23:08:31.924Z,15.93
2018-06-18T23:11:01.663Z,15.86
2018-06-18T23:13:34.308Z,15.81
2018-06-18T23:16:05.595Z,15.77
2018-06-18T23:18:35.321Z,15.71
2018-06-18T23:21:05.031Z,15.72
2018-06-18T23:23:34.758Z,15.70
2018-06-18T23:26:04.486Z,15.65
2018-06-18T23:28:52.818Z,15.56
2018-06-18T23:31:22.575Z,15.46
2018-06-18T23:33:52.850Z,15.40
2018-06-18T23:36:22.584Z,15.34
2018-06-18T23:38:52.282Z,15.29
2018-06-18T23:41:23.001Z,15.28
2018-06-18T23:43:52.757Z,15.25
2018-06-18T23:46:22.470Z,15.23
2018-06-18T23:48:52.203Z,15.22
2018-06-18T23:51:21.904Z,15.17
2018-06-18T23:53:51.779Z,15.16
2018-06-18T23:56:21.494Z,15.19
2018-06-18T23:58:51.586Z,15.15
